Time;durP1;ratioP1;P1;durP2;ratioP2;P2;SDS_P1;SDS_P2;PMS_P1;PMS_P2;Temp;Humidity;BMP_temperature;BMP_pressure;BME280_temperature;BME280_humidity;BME280_pressure;Samples;Min_cycle;Max_cycle;Signal;HPM_P1;HPM_P2
2022/10/26 00:00:46;;;;;;;17.58;9.60;;;10.70;99.90;;;;;;5035798;28;20129;-77
2022/10/26 00:03:12;;;;;;;12.93;8.00;;;10.80;99.90;;;;;;5019031;28;20116;-76
2022/10/26 00:05:38;;;;;;;18.05;8.98;;;10.70;99.90;;;;;;5039744;28;20114;-77
2022/10/26 00:08:05;;;;;;;14.02;8.13;;;10.70;99.90;;;;;;5034693;28;20041;-76
2022/10/26 00:10:32;;;;;;;14.25;8.25;;;10.70;99.90;;;;;;5037327;28;20076;-78
2022/10/26 00:12:58;;;;;;;12.55;8.20;;;10.70;99.90;;;;;;5036728;28;20561;-78
2022/10/26 00:15:23;;;;;;;15.45;8.20;;;10.60;99.90;;;;;;5035818;28;20052;-75
2022/10/26 00:17:50;;;;;;;13.52;8.30;;;10.70;99.90;;;;;;5025305;28;20045;-76
2022/10/26 00:20:16;;;;;;;15.30;8.68;;;10.60;99.90;;;;;;5040161;28;20562;-76
2022/10/26 00:22:42;;;;;;;16.33;10.23;;;10.60;99.90;;;;;;5037076;28;20041;-77
2022/10/26 00:25:08;;;;;;;16.10;10.52;;;10.50;99.90;;;;;;5039947;28;20447;-75
2022/10/26 00:27:33;;;;;;;18.08;9.88;;;10.40;99.90;;;;;;5034530;28;20127;-77
2022/10/26 00:30:00;;;;;;;22.40;9.07;;;10.50;99.90;;;;;;5039737;28;20037;-75
2022/10/26 00:32:27;;;;;;;19.88;9.90;;;10.50;99.90;;;;;;5041524;28;20051;-76
2022/10/26 00:34:53;;;;;;;14.60;9.52;;;10.40;99.90;;;;;;5036364;28;20131;-76
2022/10/26 00:37:18;;;;;;;17.17;9.70;;;10.40;99.90;;;;;;5047631;28;20121;-76
2022/10/26 00:39:44;;;;;;;14.70;9.63;;;10.40;99.90;;;;;;5051516;28;20052;-77
2022/10/26 00:42:17;;;;;;;17.63;9.93;;;10.30;99.90;;;;;;5061637;28;20044;-76
2022/10/26 00:44:45;;;;;;;19.50;9.98;;;10.30;99.90;;;;;;5037487;28;20052;-76
2022/10/26 00:47:22;;;;;;;15.98;9.05;;;10.20;99.90;;;;;;5037105;28;20071;-76
2022/10/26 00:49:50;;;;;;;17.58;9.55;;;10.20;99.90;;;;;;5040511;28;20041;-77
2022/10/26 00:52:18;;;;;;;17.88;9.38;;;10.10;99.90;;;;;;5039112;28;20404;-76
2022/10/26 00:54:44;;;;;;;17.00;8.55;;;10.10;99.90;;;;;;5032808;28;20112;-76
2022/10/26 00:57:13;;;;;;;13.77;8.95;;;9.90;99.90;;;;;;5034412;28;20041;-76
2022/10/26 00:59:43;;;;;;;13.88;8.70;;;10.00;99.90;;;;;;5035593;28;20385;-77
2022/10/26 01:02:09;;;;;;;19.80;10.30;;;9.90;99.90;;;;;;5034607;28;20582;-76
2022/10/26 01:04:35;;;;;;;19.13;10.00;;;9.80;99.90;;;;;;5035460;28;20045;-77
2022/10/26 01:07:03;;;;;;;14.73;9.38;;;9.80;99.90;;;;;;5032488;28;20140;-75
2022/10/26 01:09:30;;;;;;;15.75;9.73;;;9.80;99.90;;;;;;5037063;28;20107;-77
2022/10/26 01:11:55;;;;;;;17.40;10.45;;;9.80;99.90;;;;;;5038566;28;20056;-77
2022/10/26 01:14:22;;;;;;;20.05;10.18;;;9.80;99.90;;;;;;5041474;28;20033;-77
2022/10/26 01:16:53;;;;;;;15.93;9.25;;;9.70;99.90;;;;;;5039411;28;20606;-77
2022/10/26 01:19:22;;;;;;;18.23;10.52;;;9.70;99.90;;;;;;5030839;28;20049;-77
2022/10/26 01:22:10;;;;;;;21.63;9.95;;;9.70;99.90;;;;;;5039575;28;20064;-77
2022/10/26 01:24:45;;;;;;;19.08;10.00;;;9.70;99.90;;;;;;5040685;28;20489;-77
2022/10/26 01:27:26;;;;;;;17.23;10.55;;;9.70;99.90;;;;;;5037736;28;20429;-76
2022/10/26 01:29:51;;;;;;;16.17;10.30;;;9.60;99.90;;;;;;5036694;28;20057;-77
2022/10/26 01:32:27;;;;;;;19.35;10.05;;;9.60;99.90;;;;;;5034305;28;20049;-76
2022/10/26 01:35:03;;;;;;;14.90;10.00;;;9.60;99.90;;;;;;5043146;28;20076;-76
2022/10/26 01:37:33;;;;;;;23.17;10.57;;;9.60;99.90;;;;;;5039537;28;20056;-76
2022/10/26 01:40:07;;;;;;;14.88;8.90;;;9.50;99.90;;;;;;5035250;28;20044;-76
2022/10/26 01:42:36;;;;;;;19.80;10.85;;;9.60;99.90;;;;;;5042124;28;20110;-75
2022/10/26 01:45:08;;;;;;;16.15;9.20;;;9.50;99.90;;;;;;5042704;28;20518;-75
2022/10/26 01:47:38;;;;;;;18.60;10.47;;;9.50;99.90;;;;;;5039207;28;20573;-76
2022/10/26 01:50:05;;;;;;;19.80;11.48;;;9.50;99.90;;;;;;5041315;28;20179;-76
2022/10/26 01:52:31;;;;;;;19.77;10.30;;;9.50;99.90;;;;;;5040778;28;20049;-77
2022/10/26 01:55:06;;;;;;;19.17;11.38;;;9.40;99.90;;;;;;5040015;28;20043;-77
2022/10/26 01:57:35;;;;;;;25.58;11.10;;;9.40;99.90;;;;;;5040777;28;20042;-77
2022/10/26 02:00:12;;;;;;;18.05;10.05;;;9.40;99.90;;;;;;5036627;28;20044;-77
2022/10/26 02:02:57;;;;;;;16.67;10.52;;;9.40;99.90;;;;;;5041429;28;20067;-77
2022/10/26 02:05:47;;;;;;;18.50;10.75;;;9.40;99.90;;;;;;5036494;28;20416;-76
2022/10/26 02:08:52;;;;;;;18.05;11.23;;;9.40;99.90;;;;;;5047376;28;20044;-76
2022/10/26 02:11:34;;;;;;;20.27;10.52;;;9.30;99.90;;;;;;5044473;28;20053;-76
2022/10/26 02:14:12;;;;;;;19.38;11.07;;;9.30;99.90;;;;;;5055274;28;20068;-76
2022/10/26 02:17:01;;;;;;;20.45;10.63;;;9.30;99.90;;;;;;5037981;28;20099;-77
2022/10/26 02:19:44;;;;;;;17.08;11.23;;;9.30;99.90;;;;;;5037631;28;20050;-77
2022/10/26 02:22:24;;;;;;;18.00;10.93;;;9.30;99.90;;;;;;5039413;28;20452;-76
2022/10/26 02:24:52;;;;;;;20.17;10.10;;;9.30;99.90;;;;;;5039790;28;20167;-77
2022/10/26 02:27:25;;;;;;;19.27;11.23;;;9.20;99.90;;;;;;5039889;28;20037;-78
2022/10/26 02:29:54;;;;;;;19.05;11.90;;;9.20;99.90;;;;;;5041735;28;20056;-77
2022/10/26 02:32:24;;;;;;;20.58;10.90;;;9.20;99.90;;;;;;5038187;28;20058;-77
2022/10/26 02:34:51;;;;;;;17.60;11.25;;;9.20;99.90;;;;;;5032153;28;20110;-77
2022/10/26 02:37:19;;;;;;;21.00;11.77;;;9.20;99.90;;;;;;5041496;28;20736;-76
2022/10/26 02:39:48;;;;;;;21.70;12.38;;;9.20;99.90;;;;;;5041909;28;20056;-77
2022/10/26 02:42:15;;;;;;;18.92;11.18;;;9.10;99.90;;;;;;5041246;28;20132;-77
2022/10/26 02:44:49;;;;;;;23.65;11.75;;;9.20;99.90;;;;;;5039064;28;21159;-76
2022/10/26 02:47:16;;;;;;;21.00;11.18;;;9.20;99.90;;;;;;5040681;28;20049;-77
2022/10/26 02:49:42;;;;;;;20.17;10.35;;;9.10;99.90;;;;;;5043379;28;20511;-78
2022/10/26 02:52:37;;;;;;;19.77;11.77;;;9.20;99.90;;;;;;5040340;28;20079;-76
2022/10/26 02:55:09;;;;;;;17.50;10.38;;;9.20;99.90;;;;;;5040152;28;20187;-75
2022/10/26 02:57:38;;;;;;;20.92;11.38;;;9.20;99.90;;;;;;5039211;28;20060;-76
2022/10/26 03:00:09;;;;;;;20.08;12.10;;;9.20;99.90;;;;;;5034764;28;20037;-76
2022/10/26 03:02:35;;;;;;;18.35;10.75;;;9.20;99.90;;;;;;5036296;28;20188;-76
2022/10/26 03:05:15;;;;;;;19.40;10.77;;;9.10;99.90;;;;;;5038087;28;20083;-75
2022/10/26 03:07:41;;;;;;;20.90;11.23;;;9.10;99.90;;;;;;5036451;28;20132;-76
2022/10/26 03:10:07;;;;;;;20.90;12.10;;;9.10;99.90;;;;;;5037842;28;20544;-75
2022/10/26 03:12:32;;;;;;;22.02;11.25;;;9.10;99.90;;;;;;5038722;28;20480;-76
2022/10/26 03:14:58;;;;;;;20.55;11.15;;;9.10;99.90;;;;;;5037169;28;20140;-76
2022/10/26 03:17:24;;;;;;;21.92;11.48;;;9.10;99.90;;;;;;5037660;28;20131;-76
2022/10/26 03:19:49;;;;;;;24.13;11.88;;;9.10;99.90;;;;;;5038934;28;20052;-76
2022/10/26 03:22:15;;;;;;;21.00;11.90;;;9.10;99.90;;;;;;5033909;28;20079;-75
2022/10/26 03:24:43;;;;;;;19.58;11.93;;;9.10;99.90;;;;;;5040891;28;20098;-76
2022/10/26 03:27:09;;;;;;;18.38;11.25;;;9.10;99.90;;;;;;5039322;28;20128;-75
2022/10/26 03:29:34;;;;;;;20.83;11.80;;;9.10;99.90;;;;;;5039646;28;20127;-76
2022/10/26 03:32:00;;;;;;;23.10;11.98;;;9.10;99.90;;;;;;5038898;28;20510;-76
2022/10/26 03:34:26;;;;;;;21.65;11.82;;;9.10;99.90;;;;;;5039596;28;20057;-77
2022/10/26 03:36:51;;;;;;;21.30;12.65;;;9.20;99.90;;;;;;5036362;28;20040;-76
2022/10/26 03:42:58;;;;;;;23.15;12.85;;;9.20;99.90;;;;;;5045109;28;20061;-77
2022/10/26 03:45:24;;;;;;;23.42;12.77;;;9.20;99.90;;;;;;5057797;28;20060;-76
2022/10/26 03:47:49;;;;;;;18.98;12.50;;;9.20;99.90;;;;;;5056011;28;20733;-76
2022/10/26 03:50:18;;;;;;;17.92;12.60;;;9.20;99.90;;;;;;5039078;28;20136;-76
2022/10/26 03:52:46;;;;;;;19.98;13.02;;;9.20;99.90;;;;;;5043301;28;20041;-77
2022/10/26 03:55:12;;;;;;;18.13;12.15;;;9.30;99.90;;;;;;5040112;28;20044;-76
2022/10/26 03:57:43;;;;;;;26.50;13.63;;;9.30;99.90;;;;;;5032832;28;20044;-77
2022/10/26 04:00:11;;;;;;;24.35;13.68;;;9.30;99.90;;;;;;5037313;28;20065;-76
2022/10/26 04:02:36;;;;;;;21.17;12.30;;;9.30;99.90;;;;;;5039260;28;20049;-76
2022/10/26 04:05:03;;;;;;;22.05;14.13;;;9.30;99.90;;;;;;5038994;28;20076;-77
2022/10/26 04:07:28;;;;;;;22.35;13.95;;;9.30;99.90;;;;;;5039046;28;20054;-76
2022/10/26 04:09:54;;;;;;;23.23;13.35;;;9.30;99.90;;;;;;5040706;28;20516;-76
2022/10/26 04:12:19;;;;;;;25.58;14.63;;;9.30;99.90;;;;;;5035430;28;20558;-76
2022/10/26 04:14:45;;;;;;;22.80;15.45;;;9.40;99.90;;;;;;5038542;28;20033;-75
2022/10/26 04:17:11;;;;;;;22.42;15.48;;;9.50;99.90;;;;;;5040793;28;20070;-76
2022/10/26 04:19:36;;;;;;;28.83;16.67;;;9.50;99.90;;;;;;5033496;28;20624;-76
2022/10/26 04:22:02;;;;;;;23.65;14.70;;;9.60;99.90;;;;;;5036119;28;20033;-76
2022/10/26 04:24:28;;;;;;;26.60;16.20;;;9.60;99.90;;;;;;5037479;28;20098;-76
2022/10/26 04:26:53;;;;;;;28.10;16.90;;;9.60;99.90;;;;;;5038463;28;20098;-77
2022/10/26 04:29:19;;;;;;;28.25;17.75;;;9.70;99.90;;;;;;5038045;28;20053;-76
2022/10/26 04:31:44;;;;;;;35.15;18.33;;;9.70;99.90;;;;;;5032657;28;20369;-76
2022/10/26 04:34:13;;;;;;;33.20;19.15;;;9.70;99.90;;;;;;5037023;28;20045;-75
2022/10/26 04:36:39;;;;;;;29.30;17.90;;;9.70;99.90;;;;;;5036579;28;20536;-76
2022/10/26 04:39:04;;;;;;;29.63;18.20;;;9.80;99.90;;;;;;5034647;28;20045;-75
2022/10/26 04:41:30;;;;;;;25.75;17.40;;;9.80;99.90;;;;;;5037198;28;20101;-76
2022/10/26 04:43:56;;;;;;;34.83;19.20;;;9.80;99.90;;;;;;5042339;28;20056;-75
2022/10/26 04:46:21;;;;;;;29.55;18.52;;;9.80;99.90;;;;;;5043437;28;20052;-75
2022/10/26 04:48:47;;;;;;;27.25;18.45;;;9.90;99.90;;;;;;5044420;28;20465;-76
2022/10/26 04:51:13;;;;;;;33.08;19.38;;;9.90;99.90;;;;;;5043613;28;20033;-76
2022/10/26 04:53:39;;;;;;;29.33;19.13;;;10.00;99.90;;;;;;5041961;28;20041;-75
2022/10/26 04:56:05;;;;;;;29.42;19.42;;;9.90;99.90;;;;;;5043665;28;20044;-75
2022/10/26 04:58:33;;;;;;;29.13;19.33;;;10.00;99.90;;;;;;5038943;28;20053;-76
2022/10/26 05:01:01;;;;;;;30.88;19.48;;;10.00;99.90;;;;;;5034458;28;20057;-74
2022/10/26 05:03:26;;;;;;;36.45;19.40;;;10.00;99.90;;;;;;5037573;28;20041;-73
2022/10/26 05:05:52;;;;;;;32.97;20.50;;;10.00;99.90;;;;;;5037587;28;20056;-73
2022/10/26 05:08:18;;;;;;;34.83;19.92;;;10.00;99.90;;;;;;5036951;28;20047;-73
2022/10/26 05:10:48;;;;;;;32.67;19.55;;;10.10;99.90;;;;;;5054283;28;20067;-73
2022/10/26 05:13:14;;;;;;;32.67;19.60;;;10.10;99.90;;;;;;5048194;28;20551;-73
2022/10/26 05:15:40;;;;;;;30.58;20.25;;;10.20;99.90;;;;;;5050503;28;20049;-73
2022/10/26 05:18:07;;;;;;;29.33;19.80;;;10.20;99.90;;;;;;5040784;28;20044;-73
2022/10/26 05:20:34;;;;;;;30.52;20.55;;;10.20;99.90;;;;;;5040710;28;20044;-74
2022/10/26 05:23:05;;;;;;;31.58;19.52;;;10.20;99.90;;;;;;5037358;28;20048;-74
2022/10/26 05:25:36;;;;;;;29.83;19.25;;;10.20;99.90;;;;;;5038492;28;20049;-73
2022/10/26 05:28:04;;;;;;;34.55;20.05;;;10.30;99.90;;;;;;5033771;28;20049;-72
2022/10/26 05:30:30;;;;;;;35.38;21.88;;;10.30;99.90;;;;;;5035691;28;20098;-71
2022/10/26 05:32:58;;;;;;;31.33;19.42;;;10.30;99.90;;;;;;5036369;28;20053;-72
2022/10/26 05:35:24;;;;;;;32.55;20.60;;;10.30;99.90;;;;;;5034247;28;20052;-72
2022/10/26 05:37:51;;;;;;;31.10;19.85;;;10.30;99.90;;;;;;5039973;28;20554;-70
2022/10/26 05:40:17;;;;;;;30.17;19.48;;;10.30;99.90;;;;;;5037203;28;20132;-72
2022/10/26 05:42:43;;;;;;;30.73;20.13;;;10.30;99.90;;;;;;5034951;28;20041;-71
2022/10/26 05:45:09;;;;;;;33.50;20.08;;;10.30;99.90;;;;;;5033829;28;20067;-70
2022/10/26 05:47:40;;;;;;;34.05;20.48;;;10.30;99.90;;;;;;5034282;28;20045;-69
2022/10/26 05:50:06;;;;;;;36.60;21.00;;;10.40;99.90;;;;;;5034448;28;20041;-71
2022/10/26 05:52:38;;;;;;;28.10;19.65;;;10.30;99.90;;;;;;5032203;28;20318;-74
2022/10/26 05:55:05;;;;;;;28.92;19.63;;;10.40;99.90;;;;;;5036771;28;20454;-74
2022/10/26 05:57:31;;;;;;;34.55;19.42;;;10.40;99.90;;;;;;5035272;28;20049;-73
2022/10/26 05:59:57;;;;;;;30.27;18.95;;;10.40;99.90;;;;;;5037480;28;20037;-73
2022/10/26 06:02:38;;;;;;;31.10;19.55;;;10.40;99.90;;;;;;5036963;28;20501;-73
2022/10/26 06:05:04;;;;;;;34.60;20.08;;;10.50;99.90;;;;;;5034053;28;20121;-73
2022/10/26 06:07:30;;;;;;;29.42;18.58;;;10.40;99.90;;;;;;5036836;28;20056;-73
2022/10/26 06:09:56;;;;;;;26.40;17.75;;;10.50;99.90;;;;;;5030637;28;20532;-72
2022/10/26 06:12:25;;;;;;;31.00;17.63;;;10.50;99.90;;;;;;5037714;28;20447;-73
2022/10/26 06:14:51;;;;;;;32.50;20.08;;;10.50;99.90;;;;;;5039652;28;20139;-73
2022/10/26 06:17:37;;;;;;;37.33;19.50;;;10.50;99.90;;;;;;5037320;28;20037;-74
2022/10/26 06:20:07;;;;;;;30.33;16.73;;;10.40;99.90;;;;;;5022644;28;20053;-74
2022/10/26 06:22:51;;;;;;;30.63;18.20;;;10.40;99.90;;;;;;5025876;28;20276;-74
2022/10/26 06:25:28;;;;;;;27.63;18.13;;;10.40;99.90;;;;;;5023988;28;20078;-75
2022/10/26 06:28:31;;;;;;;32.78;17.33;;;10.40;99.90;;;;;;5029870;28;20041;-74
2022/10/26 06:30:57;;;;;;;27.73;16.38;;;10.40;99.90;;;;;;5029893;28;20045;-74
2022/10/26 06:33:24;;;;;;;30.08;16.70;;;10.40;99.90;;;;;;5038224;28;20620;-72
2022/10/26 06:36:06;;;;;;;32.70;17.50;;;10.30;99.90;;;;;;5033495;28;20045;-77
2022/10/26 06:38:34;;;;;;;27.67;16.98;;;10.40;99.90;;;;;;5038309;28;20110;-74
2022/10/26 06:41:00;;;;;;;26.05;16.65;;;10.40;99.90;;;;;;5041216;28;20120;-73
2022/10/26 06:43:29;;;;;;;26.70;16.52;;;10.20;99.90;;;;;;5039655;28;20107;-73
2022/10/26 06:46:08;;;;;;;24.88;16.00;;;10.20;99.90;;;;;;5037202;28;20036;-73
2022/10/26 06:49:03;;;;;;;25.17;16.15;;;10.20;99.90;;;;;;5038403;28;20045;-74
2022/10/26 06:51:30;;;;;;;26.02;16.42;;;10.20;99.90;;;;;;5005883;28;20041;-73
2022/10/26 06:54:05;;;;;;;27.70;16.52;;;10.20;99.90;;;;;;5040363;28;20617;-74
2022/10/26 06:56:32;;;;;;;31.25;16.80;;;10.20;99.90;;;;;;5026142;28;20087;-71
2022/10/26 06:59:07;;;;;;;27.10;17.98;;;10.30;99.90;;;;;;5036101;28;20087;-71
2022/10/26 07:01:32;;;;;;;27.40;16.30;;;10.30;99.90;;;;;;5036404;28;20063;-71
2022/10/26 07:03:58;;;;;;;33.00;17.05;;;10.30;99.90;;;;;;5038954;28;20112;-71
2022/10/26 07:06:24;;;;;;;24.77;16.05;;;10.40;99.90;;;;;;5037550;28;20049;-71
2022/10/26 07:08:50;;;;;;;24.38;16.17;;;10.50;99.90;;;;;;5035541;28;20088;-71
2022/10/26 07:11:16;;;;;;;26.25;15.60;;;10.50;99.90;;;;;;5036609;28;20131;-72
2022/10/26 07:13:41;;;;;;;26.52;15.45;;;10.60;99.90;;;;;;5030661;28;20152;-72
2022/10/26 07:16:07;;;;;;;24.60;16.27;;;10.70;99.90;;;;;;5040872;28;20045;-73
2022/10/26 07:18:32;;;;;;;31.63;16.35;;;10.70;99.90;;;;;;5035368;28;20061;-72
2022/10/26 07:20:58;;;;;;;26.77;16.02;;;10.80;99.90;;;;;;5041823;28;20183;-73
2022/10/26 07:23:24;;;;;;;28.67;16.45;;;10.90;99.90;;;;;;5041029;28;20385;-72
2022/10/26 07:25:50;;;;;;;29.15;16.95;;;10.90;99.90;;;;;;5036993;28;20211;-72
2022/10/26 07:28:15;;;;;;;25.33;15.27;;;10.90;99.90;;;;;;5039928;28;20038;-72
2022/10/26 07:30:43;;;;;;;23.38;14.35;;;10.90;99.90;;;;;;5040515;28;20557;-72
2022/10/26 07:33:11;;;;;;;25.60;15.65;;;11.10;99.90;;;;;;5036751;28;20041;-74
2022/10/26 07:35:37;;;;;;;22.92;14.48;;;11.10;99.90;;;;;;5034847;28;20129;-74
2022/10/26 07:38:04;;;;;;;24.55;15.25;;;11.10;99.90;;;;;;5033215;28;20105;-74
2022/10/26 07:40:30;;;;;;;23.88;15.00;;;11.20;99.90;;;;;;5036077;28;20543;-74
2022/10/26 07:42:58;;;;;;;24.83;15.77;;;11.30;99.90;;;;;;5032931;28;20049;-74
2022/10/26 07:45:25;;;;;;;25.60;14.95;;;11.30;99.90;;;;;;5033048;28;20045;-73
2022/10/26 07:47:50;;;;;;;24.75;14.40;;;11.30;99.90;;;;;;5031590;28;20065;-73
2022/10/26 07:50:16;;;;;;;19.77;13.88;;;11.40;99.90;;;;;;5031070;28;20166;-73
2022/10/26 07:52:42;;;;;;;19.63;13.48;;;11.40;99.90;;;;;;5038313;28;20416;-74
2022/10/26 07:55:09;;;;;;;26.63;14.50;;;11.40;99.90;;;;;;5033247;28;20057;-74
2022/10/26 07:57:35;;;;;;;23.55;14.15;;;11.50;99.90;;;;;;5030730;28;20080;-74
2022/10/26 08:00:03;;;;;;;20.95;13.27;;;11.60;99.90;;;;;;5029886;28;20048;-73
2022/10/26 08:02:29;;;;;;;20.15;14.00;;;11.60;99.90;;;;;;5033822;28;20045;-72
2022/10/26 08:04:54;;;;;;;23.77;15.45;;;11.60;99.90;;;;;;5037708;28;20519;-72
2022/10/26 08:07:20;;;;;;;23.67;12.98;;;11.60;99.90;;;;;;5038478;28;20040;-72
2022/10/26 08:09:46;;;;;;;23.27;13.82;;;11.70;99.90;;;;;;5033503;28;20057;-72
2022/10/26 08:12:15;;;;;;;24.83;13.88;;;11.70;99.90;;;;;;5032368;28;20042;-73
2022/10/26 08:14:41;;;;;;;23.70;14.05;;;11.80;99.90;;;;;;5037976;28;20037;-72
2022/10/26 08:17:08;;;;;;;18.55;11.80;;;11.90;99.90;;;;;;5033815;28;20060;-72
2022/10/26 08:19:33;;;;;;;18.98;11.80;;;11.90;99.90;;;;;;5042546;28;20079;-72
2022/10/26 08:21:59;;;;;;;18.88;11.82;;;12.00;99.90;;;;;;5044451;28;20041;-72
2022/10/26 08:24:25;;;;;;;24.83;12.20;;;12.10;99.90;;;;;;5039079;28;20041;-72
2022/10/26 08:26:50;;;;;;;20.73;12.23;;;12.30;99.90;;;;;;5043319;28;20056;-73
2022/10/26 08:29:16;;;;;;;16.90;10.75;;;12.50;99.90;;;;;;5041023;28;20182;-72
2022/10/26 08:31:42;;;;;;;16.70;9.65;;;12.50;99.90;;;;;;5045210;28;20449;-72
2022/10/26 08:34:07;;;;;;;13.95;9.98;;;12.60;99.90;;;;;;5037344;28;20045;-73
2022/10/26 08:36:33;;;;;;;16.55;10.35;;;12.70;99.90;;;;;;5045023;28;20109;-73
2022/10/26 08:38:59;;;;;;;18.90;10.07;;;12.90;99.90;;;;;;5040669;28;20060;-73
2022/10/26 08:41:36;;;;;;;13.57;8.50;;;12.90;99.90;;;;;;5039014;28;20044;-72
2022/10/26 08:44:31;;;;;;;15.15;8.40;;;13.10;99.90;;;;;;5036681;28;20533;-73
2022/10/26 08:47:06;;;;;;;15.00;8.27;;;13.00;99.90;;;;;;5044355;28;20037;-73
2022/10/26 08:49:42;;;;;;;14.20;7.55;;;13.10;99.90;;;;;;5040479;28;20467;-73
2022/10/26 08:52:12;;;;;;;19.20;7.28;;;13.10;99.90;;;;;;5040618;28;20761;-73
2022/10/26 08:54:43;;;;;;;17.10;7.63;;;13.20;99.90;;;;;;5037337;28;20083;-73
2022/10/26 08:57:25;;;;;;;15.52;6.55;;;13.30;99.90;;;;;;5036254;28;20088;-73
2022/10/26 09:00:06;;;;;;;11.50;6.60;;;13.40;99.90;;;;;;5038408;28;21628;-74
2022/10/26 09:02:32;;;;;;;11.40;7.07;;;13.60;99.90;;;;;;5043677;28;20040;-73
2022/10/26 09:04:58;;;;;;;14.20;7.03;;;13.60;99.90;;;;;;5037911;28;20050;-73
2022/10/26 09:07:32;;;;;;;13.02;7.93;;;13.70;99.90;;;;;;5035273;28;20045;-68
2022/10/26 09:10:16;;;;;;;12.88;6.72;;;13.90;99.90;;;;;;5041503;28;20057;-69
2022/10/26 09:12:53;;;;;;;;;;;13.90;99.90;;;;;;5040497;28;20084;-73
2022/10/26 09:15:29;;;;;;;11.27;6.68;;;14.00;99.90;;;;;;5040315;28;19920;-73
2022/10/26 09:18:20;;;;;;;13.63;6.53;;;14.00;99.90;;;;;;5037955;28;20084;-73
2022/10/26 09:21:09;;;;;;;13.00;5.75;;;14.00;99.90;;;;;;5031765;28;20057;-73
2022/10/26 09:23:46;;;;;;;12.02;6.38;;;14.00;99.90;;;;;;5046682;28;20049;-73
2022/10/26 09:26:27;;;;;;;11.02;6.10;;;14.00;99.90;;;;;;5041130;28;20069;-73
2022/10/26 09:28:54;;;;;;;11.82;6.15;;;14.20;99.90;;;;;;5041637;28;20044;-73
2022/10/26 09:31:20;;;;;;;10.93;5.70;;;14.20;99.90;;;;;;5042086;28;20131;-73
2022/10/26 09:33:46;;;;;;;9.23;6.07;;;14.20;99.90;;;;;;5035457;28;20072;-73
2022/10/26 09:36:21;;;;;;;10.15;5.60;;;14.20;99.90;;;;;;5042452;28;20029;-74
2022/10/26 09:38:56;;;;;;;11.57;5.50;;;14.30;99.90;;;;;;5040623;28;20124;-74
2022/10/26 09:41:43;;;;;;;9.55;6.05;;;14.40;99.90;;;;;;5039265;28;20095;-74
2022/10/26 09:44:35;;;;;;;10.95;5.95;;;14.50;99.90;;;;;;5036733;28;20163;-73
2022/10/26 09:47:04;;;;;;;10.45;5.20;;;14.50;99.90;;;;;;5036031;28;20048;-74
2022/10/26 09:49:54;;;;;;;11.98;5.38;;;14.60;99.90;;;;;;5037407;28;20519;-74
2022/10/26 09:52:20;;;;;;;8.38;4.80;;;14.70;99.90;;;;;;5039340;28;20369;-74
2022/10/26 09:54:45;;;;;;;10.95;5.30;;;14.80;99.90;;;;;;5036182;28;20056;-74
2022/10/26 09:57:14;;;;;;;10.13;5.22;;;14.80;99.90;;;;;;5038130;28;20139;-74
2022/10/26 09:59:41;;;;;;;9.75;5.15;;;14.90;99.90;;;;;;5042281;28;20290;-74
2022/10/26 10:02:36;;;;;;;9.57;5.78;;;14.90;99.90;;;;;;5039557;28;20116;-74
2022/10/26 10:05:19;;;;;;;8.23;4.38;;;14.90;99.90;;;;;;5040786;28;20037;-74
2022/10/26 10:07:45;;;;;;;;;;;15.00;99.90;;;;;;5045145;28;20497;-74
2022/10/26 10:10:16;;;;;;;10.73;4.47;;;15.10;99.90;;;;;;5038749;28;19954;-74
2022/10/26 10:12:42;;;;;;;9.57;4.75;;;15.10;99.90;;;;;;5041260;28;20040;-74
2022/10/26 10:15:37;;;;;;;10.57;4.80;;;15.10;99.90;;;;;;5041417;28;20043;-74
2022/10/26 10:18:02;;;;;;;10.60;4.88;;;15.20;99.90;;;;;;5030062;28;20088;-73
2022/10/26 10:20:32;;;;;;;9.55;4.05;;;15.20;99.90;;;;;;5040451;28;20729;-74
2022/10/26 10:23:04;;;;;;;8.13;4.35;;;15.40;99.90;;;;;;5042775;28;20044;-74
2022/10/26 10:25:38;;;;;;;10.15;4.45;;;15.40;99.90;;;;;;5041973;28;20049;-75
2022/10/26 10:28:25;;;;;;;8.48;4.03;;;15.40;99.90;;;;;;5037126;28;20052;-74
2022/10/26 10:30:58;;;;;;;7.80;3.85;;;15.40;99.90;;;;;;5039815;28;20079;-75
2022/10/26 10:33:34;;;;;;;;;;;15.50;99.90;;;;;;5037707;28;20053;-74
2022/10/26 10:36:00;;;;;;;6.53;3.53;;;15.50;99.90;;;;;;5041554;28;19920;-73
2022/10/26 10:38:26;;;;;;;9.50;4.57;;;15.60;99.90;;;;;;5041196;28;20080;-73
2022/10/26 10:41:02;;;;;;;10.20;4.53;;;15.60;99.90;;;;;;5039346;28;21839;-74
2022/10/26 10:43:28;;;;;;;8.27;4.63;;;15.60;99.90;;;;;;5039729;28;20048;-73
2022/10/26 10:45:57;;;;;;;8.52;4.60;;;15.70;99.90;;;;;;5041724;28;20041;-74
2022/10/26 10:48:27;;;;;;;9.20;4.45;;;15.70;99.90;;;;;;5042633;28;20043;-73
2022/10/26 10:51:02;;;;;;;11.20;4.13;;;15.70;99.90;;;;;;5044399;28;20459;-74
2022/10/26 10:53:44;;;;;;;8.60;4.13;;;15.80;99.90;;;;;;5043675;28;20053;-74
2022/10/26 10:56:31;;;;;;;10.77;4.13;;;15.90;99.90;;;;;;5044115;28;20377;-74
2022/10/26 10:59:18;;;;;;;10.93;4.00;;;15.90;99.90;;;;;;5046082;28;20060;-74
2022/10/26 11:01:53;;;;;;;7.47;3.53;;;15.90;99.90;;;;;;5042887;28;20049;-75
2022/10/26 11:04:50;;;;;;;6.05;3.50;;;16.00;99.90;;;;;;5043318;28;20044;-74
2022/10/26 11:07:18;;;;;;;9.98;4.07;;;16.10;99.90;;;;;;5043166;28;20040;-74
2022/10/26 11:09:46;;;;;;;7.90;3.72;;;16.10;99.90;;;;;;5045474;28;20519;-74
2022/10/26 11:12:22;;;;;;;8.93;3.92;;;16.20;99.90;;;;;;5042518;28;20492;-74
2022/10/26 11:15:01;;;;;;;8.18;3.22;;;16.30;99.90;;;;;;5024760;28;20056;-74
2022/10/26 11:17:34;;;;;;;9.13;3.97;;;16.30;99.90;;;;;;5045175;28;20068;-73
2022/10/26 11:20:12;;;;;;;;;;;16.40;99.90;;;;;;5042817;28;20029;-73
2022/10/26 11:23:17;;;;;;;11.32;3.78;;;16.40;99.90;;;;;;5038803;28;19921;-72
2022/10/26 11:25:58;;;;;;;7.15;3.50;;;16.50;99.90;;;;;;5035438;28;20041;-74
2022/10/26 11:28:43;;;;;;;14.68;4.20;;;16.50;99.90;;;;;;5039033;28;20094;-73
2022/10/26 11:31:17;;;;;;;9.63;3.78;;;16.60;99.90;;;;;;5039367;28;20067;-73
2022/10/26 11:33:48;;;;;;;6.60;3.90;;;16.60;99.90;;;;;;5040112;28;20076;-75
2022/10/26 11:36:18;;;;;;;10.02;4.72;;;16.60;99.90;;;;;;5043235;28;20143;-74
2022/10/26 11:38:50;;;;;;;7.55;4.05;;;16.70;99.90;;;;;;5046321;28;20049;-74
2022/10/26 11:41:33;;;;;;;11.00;3.45;;;16.70;99.90;;;;;;5043467;28;20083;-74
2022/10/26 11:44:16;;;;;;;8.55;3.75;;;16.80;99.90;;;;;;5043187;28;20618;-75
2022/10/26 11:46:54;;;;;;;7.80;3.77;;;16.70;99.90;;;;;;5043560;28;20115;-75
2022/10/26 11:49:28;;;;;;;8.02;4.10;;;16.80;99.90;;;;;;5042901;28;20053;-74
2022/10/26 11:52:10;;;;;;;9.95;4.10;;;16.80;99.90;;;;;;5041942;28;20033;-74
2022/10/26 11:54:52;;;;;;;10.13;4.38;;;16.80;99.90;;;;;;5037558;28;20044;-75
2022/10/26 11:57:19;;;;;;;10.43;4.35;;;16.80;99.90;;;;;;5035156;28;20053;-74
2022/10/26 11:59:51;;;;;;;10.43;5.10;;;16.90;99.90;;;;;;5036019;28;20045;-74
2022/10/26 12:02:24;;;;;;;9.38;4.35;;;16.90;99.90;;;;;;5038978;28;20100;-75
2022/10/26 12:04:58;;;;;;;11.13;4.30;;;16.90;99.90;;;;;;5045215;28;20033;-74
2022/10/26 12:07:35;;;;;;;7.93;4.85;;;16.90;99.90;;;;;;5042042;28;20082;-75
2022/10/26 12:10:03;;;;;;;7.72;4.63;;;16.90;99.90;;;;;;5041623;28;20648;-75
2022/10/26 12:12:45;;;;;;;11.18;5.10;;;16.90;99.90;;;;;;5043225;28;20429;-75
2022/10/26 12:15:29;;;;;;;9.70;4.45;;;16.90;99.90;;;;;;5043147;28;20059;-75
2022/10/26 12:18:09;;;;;;;9.18;4.90;;;17.00;99.90;;;;;;5043835;28;20064;-74
2022/10/26 12:20:35;;;;;;;9.77;4.70;;;17.00;99.90;;;;;;5042191;28;20048;-75
2022/10/26 12:23:03;;;;;;;10.20;4.88;;;17.00;99.90;;;;;;5038332;28;20045;-75
2022/10/26 12:25:29;;;;;;;8.80;4.25;;;17.00;99.90;;;;;;5043056;28;20036;-74
2022/10/26 12:27:57;;;;;;;11.98;4.72;;;17.10;99.90;;;;;;5043049;28;20049;-75
2022/10/26 12:30:31;;;;;;;15.52;4.80;;;17.10;99.90;;;;;;5035290;28;20548;-73
2022/10/26 12:32:59;;;;;;;10.50;4.68;;;17.10;99.90;;;;;;5038308;28;20145;-75
2022/10/26 12:35:36;;;;;;;9.85;4.82;;;17.20;99.90;;;;;;5038702;28;20048;-72
2022/10/26 12:38:20;;;;;;;12.18;5.82;;;17.20;99.90;;;;;;5036459;28;20411;-72
2022/10/26 12:40:47;;;;;;;11.85;5.35;;;17.10;99.90;;;;;;5035140;28;20052;-76
2022/10/26 12:43:13;;;;;;;11.48;5.53;;;17.10;99.90;;;;;;5036881;28;20057;-75
2022/10/26 12:45:39;;;;;;;9.73;5.20;;;17.20;99.90;;;;;;5035166;28;20098;-75
2022/10/26 12:48:26;;;;;;;18.67;6.32;;;17.20;99.90;;;;;;5039581;28;20457;-75
2022/10/26 12:50:52;;;;;;;13.15;5.68;;;17.20;99.90;;;;;;5044019;28;20045;-75
2022/10/26 12:53:21;;;;;;;10.80;5.75;;;17.20;99.90;;;;;;5034530;28;20485;-76
2022/10/26 12:56:04;;;;;;;11.05;5.00;;;17.20;99.90;;;;;;5042481;28;20579;-75
2022/10/26 12:58:55;;;;;;;9.77;4.72;;;17.20;99.90;;;;;;5036943;28;20053;-75